sensor_id;sensor_type;location;lat;lon;timestamp;P1;durP1;ratioP1;P2;durP2;ratioP2
1507;SDS011;745;48.586;10.032;2023-07-13T00:01:22;3.27;;;2.93;;
1507;SDS011;745;48.586;10.032;2023-07-13T00:03:23;3.70;;;3.05;;
1507;SDS011;745;48.586;10.032;2023-07-13T00:05:24;9.37;;;8.10;;
1507;SDS011;745;48.586;10.032;2023-07-13T00:07:25;13.80;;;12.80;;
1507;SDS011;745;48.586;10.032;2023-07-13T00:09:25;17.43;;;16.23;;
1507;SDS011;745;48.586;10.032;2023-07-13T00:11:25;15.63;;;14.30;;
1507;SDS011;745;48.586;10.032;2023-07-13T00:13:25;8.60;;;7.80;;
1507;SDS011;745;48.586;10.032;2023-07-13T00:15:26;9.30;;;6.53;;
1507;SDS011;745;48.586;10.032;2023-07-13T00:17:27;4.80;;;4.30;;
1507;SDS011;745;48.586;10.032;2023-07-13T00:19:28;4.10;;;3.70;;
1507;SDS011;745;48.586;10.032;2023-07-13T00:21:28;5.73;;;3.10;;
1507;SDS011;745;48.586;10.032;2023-07-13T00:23:28;8.10;;;3.60;;
1507;SDS011;745;48.586;10.032;2023-07-13T00:25:28;4.00;;;3.60;;
1507;SDS011;745;48.586;10.032;2023-07-13T00:27:29;4.00;;;3.30;;
1507;SDS011;745;48.586;10.032;2023-07-13T00:29:31;3.75;;;3.03;;
1507;SDS011;745;48.586;10.032;2023-07-13T00:31:33;4.65;;;3.08;;
1507;SDS011;745;48.586;10.032;2023-07-13T00:33:34;2.70;;;2.50;;
1507;SDS011;745;48.586;10.032;2023-07-13T00:35:34;3.50;;;2.70;;
1507;SDS011;745;48.586;10.032;2023-07-13T00:37:35;2.83;;;2.60;;
1507;SDS011;745;48.586;10.032;2023-07-13T00:39:35;3.10;;;2.90;;
1507;SDS011;745;48.586;10.032;2023-07-13T00:41:36;3.87;;;3.20;;
1507;SDS011;745;48.586;10.032;2023-07-13T00:43:37;3.50;;;2.90;;
1507;SDS011;745;48.586;10.032;2023-07-13T00:47:43;3.15;;;2.80;;
1507;SDS011;745;48.586;10.032;2023-07-13T00:49:44;2.60;;;2.40;;
1507;SDS011;745;48.586;10.032;2023-07-13T00:51:48;2.77;;;2.40;;
1507;SDS011;745;48.586;10.032;2023-07-13T00:53:50;3.28;;;3.00;;
1507;SDS011;745;48.586;10.032;2023-07-13T00:55:52;3.45;;;2.50;;
1507;SDS011;745;48.586;10.032;2023-07-13T00:57:53;2.72;;;2.38;;
1507;SDS011;745;48.586;10.032;2023-07-13T00:59:55;2.50;;;2.30;;
1507;SDS011;745;48.586;10.032;2023-07-13T01:01:58;2.05;;;1.85;;
1507;SDS011;745;48.586;10.032;2023-07-13T01:03:59;2.83;;;2.17;;
1507;SDS011;745;48.586;10.032;2023-07-13T01:06:00;2.60;;;2.40;;
1507;SDS011;745;48.586;10.032;2023-07-13T01:08:01;2.70;;;2.20;;
1507;SDS011;745;48.586;10.032;2023-07-13T01:10:02;9.95;;;2.65;;
1507;SDS011;745;48.586;10.032;2023-07-13T01:12:03;2.40;;;2.20;;
1507;SDS011;745;48.586;10.032;2023-07-13T01:14:04;3.78;;;2.70;;
1507;SDS011;745;48.586;10.032;2023-07-13T01:16:11;5.20;;;2.53;;
1507;SDS011;745;48.586;10.032;2023-07-13T01:18:18;4.53;;;2.10;;
1507;SDS011;745;48.586;10.032;2023-07-13T01:20:20;5.50;;;2.13;;
1507;SDS011;745;48.586;10.032;2023-07-13T01:22:21;2.97;;;1.90;;
1507;SDS011;745;48.586;10.032;2023-07-13T01:24:26;4.10;;;2.17;;
1507;SDS011;745;48.586;10.032;2023-07-13T01:26:26;2.57;;;2.07;;
1507;SDS011;745;48.586;10.032;2023-07-13T01:28:27;2.63;;;2.00;;
1507;SDS011;745;48.586;10.032;2023-07-13T01:30:28;2.45;;;1.95;;
1507;SDS011;745;48.586;10.032;2023-07-13T01:32:29;3.93;;;2.20;;
1507;SDS011;745;48.586;10.032;2023-07-13T01:34:31;8.10;;;2.38;;
1507;SDS011;745;48.586;10.032;2023-07-13T01:36:31;2.17;;;1.97;;
1507;SDS011;745;48.586;10.032;2023-07-13T01:38:32;2.40;;;2.20;;
1507;SDS011;745;48.586;10.032;2023-07-13T01:40:33;3.70;;;2.10;;
1507;SDS011;745;48.586;10.032;2023-07-13T01:42:36;3.20;;;1.90;;
1507;SDS011;745;48.586;10.032;2023-07-13T01:44:36;2.10;;;1.90;;
1507;SDS011;745;48.586;10.032;2023-07-13T01:46:37;4.27;;;2.30;;
1507;SDS011;745;48.586;10.032;2023-07-13T01:48:37;2.20;;;2.00;;
1507;SDS011;745;48.586;10.032;2023-07-13T01:50:37;2.60;;;2.40;;
1507;SDS011;745;48.586;10.032;2023-07-13T01:52:38;3.63;;;2.40;;
1507;SDS011;745;48.586;10.032;2023-07-13T01:54:38;3.17;;;2.70;;
1507;SDS011;745;48.586;10.032;2023-07-13T01:56:38;2.43;;;2.23;;
1507;SDS011;745;48.586;10.032;2023-07-13T01:58:39;3.80;;;2.17;;
1507;SDS011;745;48.586;10.032;2023-07-13T02:00:40;2.50;;;2.00;;
1507;SDS011;745;48.586;10.032;2023-07-13T02:02:40;4.43;;;2.30;;
1507;SDS011;745;48.586;10.032;2023-07-13T02:04:40;5.00;;;2.20;;
1507;SDS011;745;48.586;10.032;2023-07-13T02:06:40;2.90;;;2.33;;
1507;SDS011;745;48.586;10.032;2023-07-13T02:08:41;2.73;;;2.10;;
1507;SDS011;745;48.586;10.032;2023-07-13T02:10:42;2.35;;;2.15;;
1507;SDS011;745;48.586;10.032;2023-07-13T02:12:42;3.63;;;2.40;;
1507;SDS011;745;48.586;10.032;2023-07-13T02:14:43;4.50;;;2.43;;
1507;SDS011;745;48.586;10.032;2023-07-13T02:16:43;5.60;;;2.50;;
1507;SDS011;745;48.586;10.032;2023-07-13T02:18:44;3.40;;;2.50;;
1507;SDS011;745;48.586;10.032;2023-07-13T02:20:44;5.77;;;2.47;;
1507;SDS011;745;48.586;10.032;2023-07-13T02:22:44;2.93;;;2.43;;
1507;SDS011;745;48.586;10.032;2023-07-13T02:24:45;3.43;;;2.50;;
1507;SDS011;745;48.586;10.032;2023-07-13T02:26:45;2.60;;;2.40;;
1507;SDS011;745;48.586;10.032;2023-07-13T02:28:45;4.60;;;2.80;;
1507;SDS011;745;48.586;10.032;2023-07-13T02:30:46;3.73;;;2.33;;
1507;SDS011;745;48.586;10.032;2023-07-13T02:32:46;3.40;;;2.20;;
1507;SDS011;745;48.586;10.032;2023-07-13T02:34:46;2.93;;;2.40;;
1507;SDS011;745;48.586;10.032;2023-07-13T02:36:47;3.87;;;2.40;;
1507;SDS011;745;48.586;10.032;2023-07-13T02:38:49;3.17;;;2.70;;
1507;SDS011;745;48.586;10.032;2023-07-13T02:40:50;4.32;;;2.20;;
1507;SDS011;745;48.586;10.032;2023-07-13T02:42:50;4.13;;;2.40;;
1507;SDS011;745;48.586;10.032;2023-07-13T02:44:50;2.87;;;2.57;;
1507;SDS011;745;48.586;10.032;2023-07-13T02:46:51;2.97;;;2.30;;
1507;SDS011;745;48.586;10.032;2023-07-13T02:48:51;3.17;;;2.53;;
1507;SDS011;745;48.586;10.032;2023-07-13T02:50:53;2.80;;;2.47;;
1507;SDS011;745;48.586;10.032;2023-07-13T02:52:53;3.40;;;2.43;;
1507;SDS011;745;48.586;10.032;2023-07-13T02:54:54;2.90;;;2.47;;
1507;SDS011;745;48.586;10.032;2023-07-13T02:56:54;2.87;;;2.30;;
1507;SDS011;745;48.586;10.032;2023-07-13T02:58:54;3.10;;;2.70;;
1507;SDS011;745;48.586;10.032;2023-07-13T03:00:55;2.60;;;2.40;;
1507;SDS011;745;48.586;10.032;2023-07-13T03:02:55;5.00;;;2.40;;
1507;SDS011;745;48.586;10.032;2023-07-13T03:04:57;4.80;;;2.38;;
1507;SDS011;745;48.586;10.032;2023-07-13T03:06:58;6.00;;;2.57;;
1507;SDS011;745;48.586;10.032;2023-07-13T03:08:59;2.60;;;2.20;;
1507;SDS011;745;48.586;10.032;2023-07-13T03:11:00;4.30;;;2.17;;
1507;SDS011;745;48.586;10.032;2023-07-13T03:13:02;2.58;;;2.38;;
1507;SDS011;745;48.586;10.032;2023-07-13T03:15:02;2.87;;;2.50;;
1507;SDS011;745;48.586;10.032;2023-07-13T03:17:03;2.67;;;2.10;;
1507;SDS011;745;48.586;10.032;2023-07-13T03:19:04;4.33;;;2.93;;
1507;SDS011;745;48.586;10.032;2023-07-13T03:21:05;5.53;;;2.60;;
1507;SDS011;745;48.586;10.032;2023-07-13T03:23:06;3.42;;;2.38;;
1507;SDS011;745;48.586;10.032;2023-07-13T03:25:06;2.80;;;2.50;;
1507;SDS011;745;48.586;10.032;2023-07-13T03:27:07;3.10;;;2.80;;
1507;SDS011;745;48.586;10.032;2023-07-13T03:29:07;2.87;;;2.67;;
1507;SDS011;745;48.586;10.032;2023-07-13T03:31:15;4.17;;;2.40;;
1507;SDS011;745;48.586;10.032;2023-07-13T03:33:17;5.05;;;2.80;;
1507;SDS011;745;48.586;10.032;2023-07-13T03:35:17;2.67;;;2.43;;
1507;SDS011;745;48.586;10.032;2023-07-13T03:37:18;3.23;;;2.50;;
1507;SDS011;745;48.586;10.032;2023-07-13T03:39:18;5.60;;;2.50;;
1507;SDS011;745;48.586;10.032;2023-07-13T03:41:18;2.73;;;2.50;;
1507;SDS011;745;48.586;10.032;2023-07-13T03:43:19;4.87;;;2.30;;
1507;SDS011;745;48.586;10.032;2023-07-13T03:45:20;4.70;;;2.87;;
1507;SDS011;745;48.586;10.032;2023-07-13T03:47:20;4.50;;;2.53;;
1507;SDS011;745;48.586;10.032;2023-07-13T03:49:20;3.50;;;2.40;;
1507;SDS011;745;48.586;10.032;2023-07-13T03:51:21;4.10;;;2.83;;
1507;SDS011;745;48.586;10.032;2023-07-13T03:53:21;4.80;;;2.83;;
1507;SDS011;745;48.586;10.032;2023-07-13T03:55:21;3.63;;;3.07;;
1507;SDS011;745;48.586;10.032;2023-07-13T03:57:22;4.57;;;2.50;;
1507;SDS011;745;48.586;10.032;2023-07-13T03:59:23;5.43;;;2.80;;
1507;SDS011;745;48.586;10.032;2023-07-13T04:01:23;3.20;;;2.50;;
1507;SDS011;745;48.586;10.032;2023-07-13T04:03:25;4.90;;;3.00;;
1507;SDS011;745;48.586;10.032;2023-07-13T04:05:28;2.50;;;2.25;;
1507;SDS011;745;48.586;10.032;2023-07-13T04:07:28;2.40;;;2.20;;
1507;SDS011;745;48.586;10.032;2023-07-13T04:09:28;4.30;;;2.70;;
1507;SDS011;745;48.586;10.032;2023-07-13T04:11:30;6.63;;;2.87;;
1507;SDS011;745;48.586;10.032;2023-07-13T04:13:31;2.60;;;2.40;;
1507;SDS011;745;48.586;10.032;2023-07-13T04:15:32;2.97;;;2.63;;
1507;SDS011;745;48.586;10.032;2023-07-13T04:17:32;2.57;;;2.37;;
1507;SDS011;745;48.586;10.032;2023-07-13T04:19:33;3.07;;;2.77;;
1507;SDS011;745;48.586;10.032;2023-07-13T04:21:33;3.30;;;2.67;;
1507;SDS011;745;48.586;10.032;2023-07-13T04:23:33;2.97;;;2.63;;
1507;SDS011;745;48.586;10.032;2023-07-13T04:25:34;2.47;;;2.20;;
1507;SDS011;745;48.586;10.032;2023-07-13T04:27:34;2.67;;;2.43;;
1507;SDS011;745;48.586;10.032;2023-07-13T04:29:34;6.37;;;2.83;;
1507;SDS011;745;48.586;10.032;2023-07-13T04:31:35;7.40;;;2.83;;
1507;SDS011;745;48.586;10.032;2023-07-13T04:33:36;2.80;;;2.60;;
1507;SDS011;745;48.586;10.032;2023-07-13T04:35:36;3.00;;;2.50;;
1507;SDS011;745;48.586;10.032;2023-07-13T04:37:37;3.40;;;2.53;;
1507;SDS011;745;48.586;10.032;2023-07-13T04:39:38;4.50;;;2.40;;
1507;SDS011;745;48.586;10.032;2023-07-13T04:41:38;5.90;;;2.40;;
1507;SDS011;745;48.586;10.032;2023-07-13T04:43:38;5.30;;;2.80;;
1507;SDS011;745;48.586;10.032;2023-07-13T04:45:38;3.07;;;2.40;;
1507;SDS011;745;48.586;10.032;2023-07-13T04:47:39;2.77;;;2.50;;
1507;SDS011;745;48.586;10.032;2023-07-13T04:49:40;5.15;;;2.90;;
1507;SDS011;745;48.586;10.032;2023-07-13T04:51:40;3.80;;;2.93;;
1507;SDS011;745;48.586;10.032;2023-07-13T04:53:41;2.87;;;2.50;;
1507;SDS011;745;48.586;10.032;2023-07-13T04:55:41;2.93;;;2.40;;
1507;SDS011;745;48.586;10.032;2023-07-13T04:57:41;5.33;;;2.57;;
1507;SDS011;745;48.586;10.032;2023-07-13T04:59:42;5.10;;;2.73;;
1507;SDS011;745;48.586;10.032;2023-07-13T05:01:42;2.80;;;2.60;;
1507;SDS011;745;48.586;10.032;2023-07-13T05:03:42;3.67;;;2.47;;
1507;SDS011;745;48.586;10.032;2023-07-13T05:05:43;4.80;;;2.63;;
1507;SDS011;745;48.586;10.032;2023-07-13T05:07:43;2.80;;;2.60;;
1507;SDS011;745;48.586;10.032;2023-07-13T05:09:43;3.40;;;2.60;;
1507;SDS011;745;48.586;10.032;2023-07-13T05:11:44;3.50;;;2.40;;
1507;SDS011;745;48.586;10.032;2023-07-13T05:13:45;2.70;;;2.50;;
1507;SDS011;745;48.586;10.032;2023-07-13T05:15:45;3.00;;;2.20;;
1507;SDS011;745;48.586;10.032;2023-07-13T05:17:47;2.30;;;2.10;;
1507;SDS011;745;48.586;10.032;2023-07-13T05:19:48;2.90;;;2.60;;
1507;SDS011;745;48.586;10.032;2023-07-13T05:21:49;3.63;;;2.67;;
1507;SDS011;745;48.586;10.032;2023-07-13T05:23:49;2.47;;;2.27;;
1507;SDS011;745;48.586;10.032;2023-07-13T05:25:50;4.40;;;2.20;;
1507;SDS011;745;48.586;10.032;2023-07-13T05:27:51;4.23;;;2.30;;
1507;SDS011;745;48.586;10.032;2023-07-13T05:29:51;3.40;;;2.63;;
1507;SDS011;745;48.586;10.032;2023-07-13T05:31:51;4.70;;;2.00;;
1507;SDS011;745;48.586;10.032;2023-07-13T05:33:52;2.60;;;2.40;;
1507;SDS011;745;48.586;10.032;2023-07-13T05:35:52;3.40;;;2.60;;
1507;SDS011;745;48.586;10.032;2023-07-13T05:37:53;4.10;;;2.50;;
1507;SDS011;745;48.586;10.032;2023-07-13T05:39:53;2.67;;;2.47;;
1507;SDS011;745;48.586;10.032;2023-07-13T05:41:53;2.43;;;2.23;;
1507;SDS011;745;48.586;10.032;2023-07-13T05:43:54;3.50;;;2.47;;
1507;SDS011;745;48.586;10.032;2023-07-13T05:45:55;2.67;;;2.10;;
1507;SDS011;745;48.586;10.032;2023-07-13T05:47:56;3.17;;;2.47;;
1507;SDS011;745;48.586;10.032;2023-07-13T05:49:56;2.90;;;2.40;;
1507;SDS011;745;48.586;10.032;2023-07-13T05:51:57;2.23;;;2.03;;
1507;SDS011;745;48.586;10.032;2023-07-13T05:53:57;5.43;;;2.57;;
1507;SDS011;745;48.586;10.032;2023-07-13T05:55:57;6.13;;;2.73;;
1507;SDS011;745;48.586;10.032;2023-07-13T05:57:58;11.27;;;3.60;;
1507;SDS011;745;48.586;10.032;2023-07-13T05:59:59;3.92;;;2.50;;
1507;SDS011;745;48.586;10.032;2023-07-13T06:01:59;3.20;;;2.33;;
1507;SDS011;745;48.586;10.032;2023-07-13T06:03:59;3.03;;;2.67;;
1507;SDS011;745;48.586;10.032;2023-07-13T06:06:00;3.77;;;2.80;;
1507;SDS011;745;48.586;10.032;2023-07-13T06:08:01;3.70;;;2.27;;
1507;SDS011;745;48.586;10.032;2023-07-13T06:10:01;3.20;;;2.90;;
1507;SDS011;745;48.586;10.032;2023-07-13T06:12:01;5.20;;;3.13;;
1507;SDS011;745;48.586;10.032;2023-07-13T06:14:02;3.53;;;2.37;;
1507;SDS011;745;48.586;10.032;2023-07-13T06:16:03;5.05;;;2.92;;
1507;SDS011;745;48.586;10.032;2023-07-13T06:18:04;4.60;;;2.60;;
1507;SDS011;745;48.586;10.032;2023-07-13T06:20:05;4.60;;;2.47;;
1507;SDS011;745;48.586;10.032;2023-07-13T06:22:06;5.05;;;2.72;;
1507;SDS011;745;48.586;10.032;2023-07-13T06:24:06;5.20;;;2.70;;
1507;SDS011;745;48.586;10.032;2023-07-13T06:26:07;4.30;;;3.00;;
1507;SDS011;745;48.586;10.032;2023-07-13T06:28:08;2.95;;;2.60;;
1507;SDS011;745;48.586;10.032;2023-07-13T06:30:09;3.80;;;2.50;;
1507;SDS011;745;48.586;10.032;2023-07-13T06:32:10;3.28;;;2.95;;
1507;SDS011;745;48.586;10.032;2023-07-13T06:34:11;5.60;;;3.17;;
1507;SDS011;745;48.586;10.032;2023-07-13T06:36:11;3.73;;;2.90;;
1507;SDS011;745;48.586;10.032;2023-07-13T06:38:11;3.17;;;2.50;;
1507;SDS011;745;48.586;10.032;2023-07-13T06:40:12;4.40;;;2.80;;
1507;SDS011;745;48.586;10.032;2023-07-13T06:42:12;5.20;;;3.07;;
1507;SDS011;745;48.586;10.032;2023-07-13T06:44:12;3.43;;;2.90;;
1507;SDS011;745;48.586;10.032;2023-07-13T06:46:14;2.77;;;2.57;;
1507;SDS011;745;48.586;10.032;2023-07-13T06:48:14;4.30;;;2.58;;
1507;SDS011;745;48.586;10.032;2023-07-13T06:50:15;4.57;;;2.37;;
1507;SDS011;745;48.586;10.032;2023-07-13T06:52:15;2.60;;;2.40;;
1507;SDS011;745;48.586;10.032;2023-07-13T06:54:16;2.67;;;2.47;;
1507;SDS011;745;48.586;10.032;2023-07-13T06:56:16;3.10;;;2.80;;
1507;SDS011;745;48.586;10.032;2023-07-13T06:58:18;3.20;;;2.90;;
1507;SDS011;745;48.586;10.032;2023-07-13T07:00:20;2.57;;;2.37;;
1507;SDS011;745;48.586;10.032;2023-07-13T07:02:20;3.23;;;2.40;;
1507;SDS011;745;48.586;10.032;2023-07-13T07:04:21;4.93;;;2.67;;
1507;SDS011;745;48.586;10.032;2023-07-13T07:06:21;2.47;;;2.27;;
1507;SDS011;745;48.586;10.032;2023-07-13T07:08:25;2.90;;;2.50;;
1507;SDS011;745;48.586;10.032;2023-07-13T07:10:25;3.30;;;2.53;;
1507;SDS011;745;48.586;10.032;2023-07-13T07:12:26;2.77;;;2.37;;
1507;SDS011;745;48.586;10.032;2023-07-13T07:14:26;4.37;;;3.17;;
1507;SDS011;745;48.586;10.032;2023-07-13T07:16:27;5.60;;;2.60;;
1507;SDS011;745;48.586;10.032;2023-07-13T07:18:27;5.20;;;2.60;;
1507;SDS011;745;48.586;10.032;2023-07-13T07:20:28;2.50;;;2.23;;
1507;SDS011;745;48.586;10.032;2023-07-13T07:22:31;3.67;;;2.53;;
1507;SDS011;745;48.586;10.032;2023-07-13T07:24:32;2.83;;;2.03;;
1507;SDS011;745;48.586;10.032;2023-07-13T07:26:33;3.20;;;1.90;;
1507;SDS011;745;48.586;10.032;2023-07-13T07:28:33;4.83;;;2.20;;
1507;SDS011;745;48.586;10.032;2023-07-13T07:30:34;2.70;;;2.20;;
1507;SDS011;745;48.586;10.032;2023-07-13T07:32:35;1.97;;;1.77;;
1507;SDS011;745;48.586;10.032;2023-07-13T07:34:35;2.83;;;2.20;;
1507;SDS011;745;48.586;10.032;2023-07-13T07:36:36;2.67;;;2.10;;
1507;SDS011;745;48.586;10.032;2023-07-13T07:38:36;2.00;;;1.80;;
1507;SDS011;745;48.586;10.032;2023-07-13T07:40:40;3.43;;;2.20;;
1507;SDS011;745;48.586;10.032;2023-07-13T07:42:41;2.13;;;1.93;;
1507;SDS011;745;48.586;10.032;2023-07-13T07:44:41;2.40;;;1.90;;
1507;SDS011;745;48.586;10.032;2023-07-13T07:46:41;3.23;;;2.03;;
1507;SDS011;745;48.586;10.032;2023-07-13T07:48:42;2.80;;;1.97;;
1507;SDS011;745;48.586;10.032;2023-07-13T07:50:42;2.13;;;1.93;;
1507;SDS011;745;48.586;10.032;2023-07-13T07:52:43;2.57;;;2.00;;
1507;SDS011;745;48.586;10.032;2023-07-13T07:54:44;2.90;;;2.00;;
1507;SDS011;745;48.586;10.032;2023-07-13T07:56:44;2.30;;;1.90;;
1507;SDS011;745;48.586;10.032;2023-07-13T07:58:44;2.30;;;2.10;;
1507;SDS011;745;48.586;10.032;2023-07-13T08:00:45;2.93;;;2.33;;
1507;SDS011;745;48.586;10.032;2023-07-13T08:02:45;2.20;;;1.80;;
1507;SDS011;745;48.586;10.032;2023-07-13T08:04:45;4.43;;;2.30;;
1507;SDS011;745;48.586;10.032;2023-07-13T08:06:46;3.10;;;2.00;;
1507;SDS011;745;48.586;10.032;2023-07-13T08:08:46;6.17;;;2.10;;
1507;SDS011;745;48.586;10.032;2023-07-13T08:10:46;6.90;;;2.27;;
1507;SDS011;745;48.586;10.032;2023-07-13T08:12:47;2.47;;;1.93;;
1507;SDS011;745;48.586;10.032;2023-07-13T08:14:51;3.17;;;2.10;;
1507;SDS011;745;48.586;10.032;2023-07-13T08:16:57;2.90;;;1.80;;
1507;SDS011;745;48.586;10.032;2023-07-13T08:18:57;3.37;;;1.80;;
1507;SDS011;745;48.586;10.032;2023-07-13T08:20:58;2.77;;;1.97;;
1507;SDS011;745;48.586;10.032;2023-07-13T08:22:58;1.90;;;1.57;;
1507;SDS011;745;48.586;10.032;2023-07-13T08:24:59;2.70;;;1.90;;
1507;SDS011;745;48.586;10.032;2023-07-13T08:26:59;2.70;;;1.67;;
1507;SDS011;745;48.586;10.032;2023-07-13T08:29:00;2.70;;;1.70;;
1507;SDS011;745;48.586;10.032;2023-07-13T08:31:01;2.03;;;1.83;;
1507;SDS011;745;48.586;10.032;2023-07-13T08:33:03;2.23;;;2.00;;
1507;SDS011;745;48.586;10.032;2023-07-13T08:35:05;2.77;;;2.00;;
1507;SDS011;745;48.586;10.032;2023-07-13T08:37:06;2.20;;;1.90;;
1507;SDS011;745;48.586;10.032;2023-07-13T08:39:06;2.13;;;1.60;;
1507;SDS011;745;48.586;10.032;2023-07-13T08:41:11;3.40;;;2.20;;
1507;SDS011;745;48.586;10.032;2023-07-13T08:43:15;3.93;;;2.00;;
1507;SDS011;745;48.586;10.032;2023-07-13T08:47:24;2.73;;;2.07;;
1507;SDS011;745;48.586;10.032;2023-07-13T08:49:26;2.57;;;2.20;;
1507;SDS011;745;48.586;10.032;2023-07-13T08:51:48;2.80;;;1.93;;
1507;SDS011;745;48.586;10.032;2023-07-13T08:53:52;2.27;;;2.00;;
1507;SDS011;745;48.586;10.032;2023-07-13T08:55:57;4.47;;;2.07;;
1507;SDS011;745;48.586;10.032;2023-07-13T08:58:14;3.70;;;2.03;;
1507;SDS011;745;48.586;10.032;2023-07-13T09:00:16;4.77;;;2.13;;
1507;SDS011;745;48.586;10.032;2023-07-13T09:02:34;2.80;;;2.10;;
1507;SDS011;745;48.586;10.032;2023-07-13T09:04:42;3.20;;;1.97;;
1507;SDS011;745;48.586;10.032;2023-07-13T09:06:49;3.00;;;2.20;;
1507;SDS011;745;48.586;10.032;2023-07-13T09:08:58;4.10;;;2.27;;
1507;SDS011;745;48.586;10.032;2023-07-13T09:15:31;2.97;;;1.73;;
1507;SDS011;745;48.586;10.032;2023-07-13T09:17:36;1.87;;;1.77;;
1507;SDS011;745;48.586;10.032;2023-07-13T09:19:42;2.90;;;2.00;;
1507;SDS011;745;48.586;10.032;2023-07-13T09:21:43;2.40;;;1.87;;
1507;SDS011;745;48.586;10.032;2023-07-13T09:23:44;1.77;;;1.67;;
1507;SDS011;745;48.586;10.032;2023-07-13T09:25:47;2.10;;;1.90;;
1507;SDS011;745;48.586;10.032;2023-07-13T09:27:50;2.30;;;2.10;;
1507;SDS011;745;48.586;10.032;2023-07-13T09:29:57;2.37;;;1.90;;
1507;SDS011;745;48.586;10.032;2023-07-13T09:32:04;2.07;;;1.87;;
1507;SDS011;745;48.586;10.032;2023-07-13T09:34:10;4.07;;;2.23;;
1507;SDS011;745;48.586;10.032;2023-07-13T09:36:22;2.87;;;2.10;;
1507;SDS011;745;48.586;10.032;2023-07-13T09:38:26;3.13;;;2.00;;
1507;SDS011;745;48.586;10.032;2023-07-13T09:42:59;2.43;;;2.20;;
1507;SDS011;745;48.586;10.032;2023-07-13T09:45:00;4.27;;;2.10;;
1507;SDS011;745;48.586;10.032;2023-07-13T09:47:16;3.53;;;2.67;;
1507;SDS011;745;48.586;10.032;2023-07-13T09:49:18;2.83;;;2.20;;
1507;SDS011;745;48.586;10.032;2023-07-13T09:51:18;4.17;;;2.60;;
1507;SDS011;745;48.586;10.032;2023-07-13T09:53:19;2.73;;;2.40;;
1507;SDS011;745;48.586;10.032;2023-07-13T09:57:27;2.40;;;2.20;;
1507;SDS011;745;48.586;10.032;2023-07-13T09:59:32;3.60;;;2.30;;
1507;SDS011;745;48.586;10.032;2023-07-13T10:01:35;2.30;;;2.10;;
1507;SDS011;745;48.586;10.032;2023-07-13T10:03:36;8.90;;;3.10;;
1507;SDS011;745;48.586;10.032;2023-07-13T10:05:42;3.87;;;2.43;;
1507;SDS011;745;48.586;10.032;2023-07-13T10:07:44;4.77;;;3.00;;
1507;SDS011;745;48.586;10.032;2023-07-13T10:09:44;4.23;;;2.93;;
1507;SDS011;745;48.586;10.032;2023-07-13T10:11:44;2.60;;;2.40;;
1507;SDS011;745;48.586;10.032;2023-07-13T10:13:55;3.33;;;2.67;;
1507;SDS011;745;48.586;10.032;2023-07-13T10:15:57;2.40;;;2.20;;
1507;SDS011;745;48.586;10.032;2023-07-13T10:17:58;5.40;;;2.57;;
1507;SDS011;745;48.586;10.032;2023-07-13T10:19:59;2.60;;;2.40;;
1507;SDS011;745;48.586;10.032;2023-07-13T10:22:20;5.77;;;2.80;;
1507;SDS011;745;48.586;10.032;2023-07-13T10:24:25;4.67;;;2.40;;
1507;SDS011;745;48.586;10.032;2023-07-13T10:26:29;3.20;;;2.63;;
1507;SDS011;745;48.586;10.032;2023-07-13T10:28:33;5.33;;;3.20;;
1507;SDS011;745;48.586;10.032;2023-07-13T10:30:38;2.83;;;2.40;;
1507;SDS011;745;48.586;10.032;2023-07-13T10:32:40;3.80;;;2.20;;
1507;SDS011;745;48.586;10.032;2023-07-13T10:34:41;4.13;;;2.50;;
1507;SDS011;745;48.586;10.032;2023-07-13T10:36:46;3.23;;;2.70;;
1507;SDS011;745;48.586;10.032;2023-07-13T10:38:47;3.63;;;2.20;;
1507;SDS011;745;48.586;10.032;2023-07-13T10:40:56;2.50;;;2.30;;
1507;SDS011;745;48.586;10.032;2023-07-13T10:43:01;2.47;;;2.23;;
1507;SDS011;745;48.586;10.032;2023-07-13T10:45:02;3.40;;;2.53;;
1507;SDS011;745;48.586;10.032;2023-07-13T10:47:15;2.60;;;2.40;;
1507;SDS011;745;48.586;10.032;2023-07-13T10:49:18;3.73;;;2.50;;
1507;SDS011;745;48.586;10.032;2023-07-13T10:51:19;3.10;;;2.40;;
1507;SDS011;745;48.586;10.032;2023-07-13T10:55:35;5.83;;;3.07;;
1507;SDS011;745;48.586;10.032;2023-07-13T10:57:54;3.80;;;2.23;;
1507;SDS011;745;48.586;10.032;2023-07-13T11:04:02;3.63;;;2.50;;
1507;SDS011;745;48.586;10.032;2023-07-13T11:06:04;2.43;;;2.10;;
1507;SDS011;745;48.586;10.032;2023-07-13T11:08:16;6.83;;;2.50;;
1507;SDS011;745;48.586;10.032;2023-07-13T11:10:45;2.20;;;2.00;;
1507;SDS011;745;48.586;10.032;2023-07-13T11:12:52;4.90;;;2.00;;
1507;SDS011;745;48.586;10.032;2023-07-13T11:16:54;3.23;;;2.40;;
1507;SDS011;745;48.586;10.032;2023-07-13T11:21:15;2.70;;;2.10;;
1507;SDS011;745;48.586;10.032;2023-07-13T11:23:20;3.30;;;2.13;;
1507;SDS011;745;48.586;10.032;2023-07-13T11:29:37;2.70;;;2.30;;
1507;SDS011;745;48.586;10.032;2023-07-13T11:31:38;2.73;;;1.70;;
1507;SDS011;745;48.586;10.032;2023-07-13T11:35:44;2.20;;;2.10;;
1507;SDS011;745;48.586;10.032;2023-07-13T11:37:47;2.67;;;2.40;;
1507;SDS011;745;48.586;10.032;2023-07-13T11:39:47;2.37;;;2.10;;
1507;SDS011;745;48.586;10.032;2023-07-13T11:41:52;4.67;;;2.37;;
1507;SDS011;745;48.586;10.032;2023-07-13T11:44:30;3.23;;;2.73;;
1507;SDS011;745;48.586;10.032;2023-07-13T11:46:24;3.37;;;2.10;;
1507;SDS011;745;48.586;10.032;2023-07-13T11:48:27;2.80;;;2.17;;
1507;SDS011;745;48.586;10.032;2023-07-13T11:50:29;2.60;;;2.07;;
1507;SDS011;745;48.586;10.032;2023-07-13T11:52:32;3.70;;;2.13;;
1507;SDS011;745;48.586;10.032;2023-07-13T11:54:42;4.50;;;2.40;;
1507;SDS011;745;48.586;10.032;2023-07-13T11:56:51;2.37;;;2.17;;
1507;SDS011;745;48.586;10.032;2023-07-13T11:58:51;3.50;;;2.07;;
1507;SDS011;745;48.586;10.032;2023-07-13T12:00:53;2.30;;;2.07;;
1507;SDS011;745;48.586;10.032;2023-07-13T12:02:56;2.90;;;2.07;;
1507;SDS011;745;48.586;10.032;2023-07-13T12:04:57;3.27;;;2.20;;
1507;SDS011;745;48.586;10.032;2023-07-13T12:07:05;2.90;;;2.30;;
1507;SDS011;745;48.586;10.032;2023-07-13T12:09:11;3.00;;;2.33;;
1507;SDS011;745;48.586;10.032;2023-07-13T12:11:15;3.87;;;2.07;;
1507;SDS011;745;48.586;10.032;2023-07-13T12:13:16;3.90;;;2.10;;
1507;SDS011;745;48.586;10.032;2023-07-13T12:15:17;2.13;;;1.90;;
1507;SDS011;745;48.586;10.032;2023-07-13T12:17:19;3.10;;;2.10;;
1507;SDS011;745;48.586;10.032;2023-07-13T12:19:21;2.83;;;2.20;;
1507;SDS011;745;48.586;10.032;2023-07-13T12:21:26;2.67;;;2.30;;
1507;SDS011;745;48.586;10.032;2023-07-13T12:23:32;2.60;;;2.40;;
1507;SDS011;745;48.586;10.032;2023-07-13T12:25:34;2.60;;;2.27;;
1507;SDS011;745;48.586;10.032;2023-07-13T12:27:34;4.80;;;2.33;;
1507;SDS011;745;48.586;10.032;2023-07-13T12:29:35;2.20;;;2.00;;
1507;SDS011;745;48.586;10.032;2023-07-13T12:31:42;5.57;;;2.03;;
1507;SDS011;745;48.586;10.032;2023-07-13T12:33:44;3.93;;;2.10;;
1507;SDS011;745;48.586;10.032;2023-07-13T12:35:49;2.27;;;2.07;;
1507;SDS011;745;48.586;10.032;2023-07-13T12:37:50;9.10;;;2.97;;
1507;SDS011;745;48.586;10.032;2023-07-13T12:39:51;2.57;;;1.90;;
1507;SDS011;745;48.586;10.032;2023-07-13T12:41:52;3.60;;;1.80;;
1507;SDS011;745;48.586;10.032;2023-07-13T12:43:53;2.63;;;2.00;;
1507;SDS011;745;48.586;10.032;2023-07-13T12:45:57;2.57;;;2.00;;
1507;SDS011;745;48.586;10.032;2023-07-13T12:48:05;4.50;;;2.30;;
1507;SDS011;745;48.586;10.032;2023-07-13T12:50:17;2.10;;;1.90;;
1507;SDS011;745;48.586;10.032;2023-07-13T12:52:23;2.50;;;2.03;;
1507;SDS011;745;48.586;10.032;2023-07-13T12:54:31;2.23;;;2.03;;
1507;SDS011;745;48.586;10.032;2023-07-13T12:56:33;2.30;;;2.10;;
1507;SDS011;745;48.586;10.032;2023-07-13T12:58:37;2.10;;;1.90;;
1507;SDS011;745;48.586;10.032;2023-07-13T13:00:40;2.03;;;1.80;;
1507;SDS011;745;48.586;10.032;2023-07-13T13:02:41;2.87;;;2.27;;
1507;SDS011;745;48.586;10.032;2023-07-13T13:04:41;6.57;;;2.60;;
1507;SDS011;745;48.586;10.032;2023-07-13T13:06:43;3.33;;;2.00;;
1507;SDS011;745;48.586;10.032;2023-07-13T13:08:45;4.17;;;2.10;;